sensor_id;sensor_type;location;lat;lon;timestamp;P1;durP1;ratioP1;P2;durP2;ratioP2
43226;SDS011;28839;52.404;9.808;2022-07-01T00:02:36;7.03;;;5.72;;
43226;SDS011;28839;52.404;9.808;2022-07-01T00:09:30;7.82;;;6.00;;
43226;SDS011;28839;52.404;9.808;2022-07-01T00:16:25;5.68;;;5.18;;
43226;SDS011;28839;52.404;9.808;2022-07-01T00:23:19;7.05;;;4.82;;
43226;SDS011;28839;52.404;9.808;2022-07-01T00:30:13;5.35;;;4.45;;
43226;SDS011;28839;52.404;9.808;2022-07-01T00:37:09;4.80;;;4.40;;
43226;SDS011;28839;52.404;9.808;2022-07-01T00:44:03;5.57;;;4.25;;
43226;SDS011;28839;52.404;9.808;2022-07-01T00:50:57;5.60;;;3.70;;
43226;SDS011;28839;52.404;9.808;2022-07-01T00:57:52;5.18;;;3.70;;
43226;SDS011;28839;52.404;9.808;2022-07-01T01:04:46;3.97;;;3.60;;
43226;SDS011;28839;52.404;9.808;2022-07-01T01:11:40;8.25;;;4.95;;
43226;SDS011;28839;52.404;9.808;2022-07-01T01:18:36;9.35;;;5.90;;
43226;SDS011;28839;52.404;9.808;2022-07-01T01:25:31;6.80;;;5.78;;
43226;SDS011;28839;52.404;9.808;2022-07-01T01:32:25;7.35;;;6.65;;
43226;SDS011;28839;52.404;9.808;2022-07-01T01:39:19;10.15;;;8.07;;
43226;SDS011;28839;52.404;9.808;2022-07-01T01:46:15;8.43;;;7.53;;
43226;SDS011;28839;52.404;9.808;2022-07-01T01:53:09;7.68;;;6.97;;
43226;SDS011;28839;52.404;9.808;2022-07-01T02:00:03;7.00;;;6.40;;
43226;SDS011;28839;52.404;9.808;2022-07-01T02:06:59;8.43;;;5.12;;
43226;SDS011;28839;52.404;9.808;2022-07-01T02:13:53;8.18;;;7.40;;
43226;SDS011;28839;52.404;9.808;2022-07-01T02:20:47;9.90;;;9.00;;
43226;SDS011;28839;52.404;9.808;2022-07-01T02:27:42;6.83;;;5.77;;
43226;SDS011;28839;52.404;9.808;2022-07-01T02:34:36;6.32;;;4.70;;
43226;SDS011;28839;52.404;9.808;2022-07-01T02:41:30;5.25;;;3.40;;
43226;SDS011;28839;52.404;9.808;2022-07-01T02:48:45;4.87;;;3.57;;
43226;SDS011;28839;52.404;9.808;2022-07-01T02:55:39;6.00;;;4.35;;
43226;SDS011;28839;52.404;9.808;2022-07-01T03:02:34;5.37;;;4.87;;
43226;SDS011;28839;52.404;9.808;2022-07-01T03:09:29;7.68;;;6.85;;
43226;SDS011;28839;52.404;9.808;2022-07-01T03:16:26;4.45;;;3.55;;
43226;SDS011;28839;52.404;9.808;2022-07-01T03:23:20;3.67;;;3.12;;
43226;SDS011;28839;52.404;9.808;2022-07-01T03:30:15;6.50;;;4.55;;
43226;SDS011;28839;52.404;9.808;2022-07-01T03:37:11;5.53;;;3.40;;
43226;SDS011;28839;52.404;9.808;2022-07-01T03:44:05;5.70;;;2.95;;
43226;SDS011;28839;52.404;9.808;2022-07-01T03:51:01;3.73;;;3.07;;
43226;SDS011;28839;52.404;9.808;2022-07-01T03:57:55;4.18;;;3.65;;
43226;SDS011;28839;52.404;9.808;2022-07-01T04:04:48;6.50;;;3.77;;
43226;SDS011;28839;52.404;9.808;2022-07-01T04:11:44;4.70;;;3.23;;
43226;SDS011;28839;52.404;9.808;2022-07-01T04:18:39;5.60;;;4.37;;
43226;SDS011;28839;52.404;9.808;2022-07-01T04:25:33;3.85;;;3.45;;
43226;SDS011;28839;52.404;9.808;2022-07-01T04:32:29;3.67;;;3.17;;
43226;SDS011;28839;52.404;9.808;2022-07-01T04:39:23;4.50;;;3.22;;
43226;SDS011;28839;52.404;9.808;2022-07-01T04:46:17;5.78;;;3.33;;
43226;SDS011;28839;52.404;9.808;2022-07-01T04:53:13;4.33;;;3.63;;
43226;SDS011;28839;52.404;9.808;2022-07-01T05:00:08;5.35;;;3.33;;
43226;SDS011;28839;52.404;9.808;2022-07-01T05:07:02;3.58;;;3.28;;
43226;SDS011;28839;52.404;9.808;2022-07-01T05:13:58;4.87;;;4.40;;
43226;SDS011;28839;52.404;9.808;2022-07-01T05:20:52;5.12;;;3.97;;
43226;SDS011;28839;52.404;9.808;2022-07-01T05:28:03;6.95;;;5.25;;
43226;SDS011;28839;52.404;9.808;2022-07-01T05:34:58;7.15;;;5.03;;
43226;SDS011;28839;52.404;9.808;2022-07-01T05:41:52;6.28;;;5.57;;
43226;SDS011;28839;52.404;9.808;2022-07-01T05:48:46;10.90;;;6.77;;
43226;SDS011;28839;52.404;9.808;2022-07-01T05:55:41;7.27;;;6.27;;
43226;SDS011;28839;52.404;9.808;2022-07-01T06:02:35;6.65;;;5.85;;
43226;SDS011;28839;52.404;9.808;2022-07-01T06:09:29;10.87;;;7.47;;
43226;SDS011;28839;52.404;9.808;2022-07-01T06:16:24;11.27;;;7.83;;
43226;SDS011;28839;52.404;9.808;2022-07-01T06:23:18;10.10;;;6.80;;
43226;SDS011;28839;52.404;9.808;2022-07-01T06:30:16;8.40;;;7.18;;
43226;SDS011;28839;52.404;9.808;2022-07-01T06:37:11;8.50;;;7.07;;
43226;SDS011;28839;52.404;9.808;2022-07-01T06:44:05;8.18;;;7.00;;
43226;SDS011;28839;52.404;9.808;2022-07-01T06:50:59;7.63;;;6.73;;
43226;SDS011;28839;52.404;9.808;2022-07-01T06:57:54;8.33;;;6.63;;
43226;SDS011;28839;52.404;9.808;2022-07-01T07:04:48;30.05;;;8.38;;
43226;SDS011;28839;52.404;9.808;2022-07-01T07:11:42;7.93;;;7.23;;
43226;SDS011;28839;52.404;9.808;2022-07-01T07:18:37;7.70;;;6.90;;
43226;SDS011;28839;52.404;9.808;2022-07-01T07:25:31;10.50;;;7.47;;
43226;SDS011;28839;52.404;9.808;2022-07-01T07:32:25;14.30;;;7.78;;
43226;SDS011;28839;52.404;9.808;2022-07-01T07:39:20;11.30;;;9.00;;
43226;SDS011;28839;52.404;9.808;2022-07-01T07:46:14;9.20;;;8.23;;
43226;SDS011;28839;52.404;9.808;2022-07-01T07:53:08;10.15;;;9.10;;
43226;SDS011;28839;52.404;9.808;2022-07-01T08:00:06;11.55;;;10.45;;
43226;SDS011;28839;52.404;9.808;2022-07-01T08:07:01;11.88;;;10.77;;
43226;SDS011;28839;52.404;9.808;2022-07-01T08:13:58;12.75;;;11.60;;
43226;SDS011;28839;52.404;9.808;2022-07-01T08:20:55;14.13;;;11.07;;
43226;SDS011;28839;52.404;9.808;2022-07-01T08:27:49;12.02;;;10.90;;
43226;SDS011;28839;52.404;9.808;2022-07-01T08:34:43;12.45;;;11.35;;
43226;SDS011;28839;52.404;9.808;2022-07-01T08:41:40;13.00;;;11.60;;
43226;SDS011;28839;52.404;9.808;2022-07-01T08:48:35;11.98;;;10.77;;
43226;SDS011;28839;52.404;9.808;2022-07-01T08:55:29;12.87;;;10.70;;
43226;SDS011;28839;52.404;9.808;2022-07-01T09:02:52;12.93;;;11.70;;
43226;SDS011;28839;52.404;9.808;2022-07-01T09:09:48;13.40;;;12.10;;
43226;SDS011;28839;52.404;9.808;2022-07-01T09:16:43;12.93;;;11.70;;
43226;SDS011;28839;52.404;9.808;2022-07-01T09:23:39;12.23;;;10.80;;
43226;SDS011;28839;52.404;9.808;2022-07-01T09:30:33;11.43;;;9.98;;
43226;SDS011;28839;52.404;9.808;2022-07-01T09:37:27;10.82;;;9.70;;
43226;SDS011;28839;52.404;9.808;2022-07-01T09:44:24;20.52;;;12.48;;
43226;SDS011;28839;52.404;9.808;2022-07-01T09:51:18;14.52;;;11.95;;
43226;SDS011;28839;52.404;9.808;2022-07-01T09:58:12;12.10;;;10.90;;
43226;SDS011;28839;52.404;9.808;2022-07-01T10:05:09;12.15;;;10.48;;
43226;SDS011;28839;52.404;9.808;2022-07-01T10:12:22;16.27;;;11.40;;
43226;SDS011;28839;52.404;9.808;2022-07-01T10:19:27;13.60;;;11.48;;
43226;SDS011;28839;52.404;9.808;2022-07-01T10:26:25;12.40;;;11.30;;
43226;SDS011;28839;52.404;9.808;2022-07-01T10:33:29;11.65;;;10.55;;
43226;SDS011;28839;52.404;9.808;2022-07-01T10:47:39;10.95;;;9.98;;
43226;SDS011;28839;52.404;9.808;2022-07-01T10:54:46;13.13;;;9.95;;
43226;SDS011;28839;52.404;9.808;2022-07-01T11:01:45;13.85;;;9.88;;
43226;SDS011;28839;52.404;9.808;2022-07-01T11:08:40;11.30;;;9.20;;
43226;SDS011;28839;52.404;9.808;2022-07-01T11:15:42;10.00;;;8.10;;
43226;SDS011;28839;52.404;9.808;2022-07-01T11:22:38;11.88;;;9.93;;
43226;SDS011;28839;52.404;9.808;2022-07-01T11:29:34;10.85;;;9.75;;
43226;SDS011;28839;52.404;9.808;2022-07-01T11:36:28;13.57;;;11.12;;
43226;SDS011;28839;52.404;9.808;2022-07-01T11:43:39;12.93;;;11.63;;
43226;SDS011;28839;52.404;9.808;2022-07-01T11:57:29;10.20;;;8.80;;
43226;SDS011;28839;52.404;9.808;2022-07-01T12:04:23;12.00;;;9.43;;
43226;SDS011;28839;52.404;9.808;2022-07-01T12:11:19;10.65;;;7.72;;
43226;SDS011;28839;52.404;9.808;2022-07-01T12:18:14;8.77;;;7.80;;
43226;SDS011;28839;52.404;9.808;2022-07-01T12:25:09;8.68;;;6.45;;
43226;SDS011;28839;52.404;9.808;2022-07-01T12:32:07;6.70;;;4.95;;
43226;SDS011;28839;52.404;9.808;2022-07-01T12:39:03;5.93;;;4.72;;
43226;SDS011;28839;52.404;9.808;2022-07-01T12:45:59;6.82;;;4.45;;
43226;SDS011;28839;52.404;9.808;2022-07-01T12:52:59;7.53;;;5.35;;
43226;SDS011;28839;52.404;9.808;2022-07-01T12:59:54;7.10;;;5.53;;
43226;SDS011;28839;52.404;9.808;2022-07-01T13:06:48;9.98;;;5.28;;
43226;SDS011;28839;52.404;9.808;2022-07-01T13:13:43;6.75;;;5.10;;
43226;SDS011;28839;52.404;9.808;2022-07-01T13:20:37;7.05;;;5.32;;
43226;SDS011;28839;52.404;9.808;2022-07-01T13:27:32;8.80;;;5.57;;
43226;SDS011;28839;52.404;9.808;2022-07-01T13:34:27;7.75;;;5.40;;
43226;SDS011;28839;52.404;9.808;2022-07-01T13:41:21;6.05;;;5.45;;
43226;SDS011;28839;52.404;9.808;2022-07-01T13:48:16;6.40;;;5.05;;
43226;SDS011;28839;52.404;9.808;2022-07-01T13:55:11;7.95;;;5.55;;
43226;SDS011;28839;52.404;9.808;2022-07-01T14:02:05;5.80;;;5.28;;
43226;SDS011;28839;52.404;9.808;2022-07-01T14:09:00;5.35;;;4.85;;
43226;SDS011;28839;52.404;9.808;2022-07-01T14:15:55;6.03;;;4.40;;
43226;SDS011;28839;52.404;9.808;2022-07-01T14:22:49;5.78;;;3.95;;
43226;SDS011;28839;52.404;9.808;2022-07-01T14:29:45;7.32;;;4.37;;
43226;SDS011;28839;52.404;9.808;2022-07-01T14:43:34;4.37;;;3.70;;
43226;SDS011;28839;52.404;9.808;2022-07-01T14:50:29;4.53;;;3.90;;
43226;SDS011;28839;52.404;9.808;2022-07-01T14:57:23;5.72;;;3.30;;
43226;SDS011;28839;52.404;9.808;2022-07-01T15:04:18;7.28;;;4.07;;
43226;SDS011;28839;52.404;9.808;2022-07-01T15:11:12;4.85;;;3.15;;
43226;SDS011;28839;52.404;9.808;2022-07-01T15:25:02;7.30;;;3.87;;
43226;SDS011;28839;52.404;9.808;2022-07-01T15:31:56;4.15;;;2.72;;
43226;SDS011;28839;52.404;9.808;2022-07-01T15:38:51;3.97;;;2.40;;
43226;SDS011;28839;52.404;9.808;2022-07-01T15:45:47;4.75;;;2.50;;
43226;SDS011;28839;52.404;9.808;2022-07-01T15:52:41;5.85;;;2.83;;
43226;SDS011;28839;52.404;9.808;2022-07-01T15:59:37;4.55;;;2.15;;
43226;SDS011;28839;52.404;9.808;2022-07-01T16:06:33;4.82;;;2.20;;
43226;SDS011;28839;52.404;9.808;2022-07-01T16:13:28;3.15;;;2.15;;
43226;SDS011;28839;52.404;9.808;2022-07-01T16:20:22;4.95;;;2.70;;
43226;SDS011;28839;52.404;9.808;2022-07-01T16:27:18;4.62;;;2.40;;
43226;SDS011;28839;52.404;9.808;2022-07-01T16:34:13;4.05;;;2.03;;
43226;SDS011;28839;52.404;9.808;2022-07-01T16:41:08;4.20;;;2.47;;
43226;SDS011;28839;52.404;9.808;2022-07-01T16:48:07;3.45;;;2.62;;
43226;SDS011;28839;52.404;9.808;2022-07-01T16:55:02;3.25;;;2.00;;
43226;SDS011;28839;52.404;9.808;2022-07-01T17:01:59;3.58;;;2.65;;
43226;SDS011;28839;52.404;9.808;2022-07-01T17:15:48;4.87;;;2.33;;
43226;SDS011;28839;52.404;9.808;2022-07-01T17:22:43;5.25;;;1.92;;
43226;SDS011;28839;52.404;9.808;2022-07-01T17:29:45;2.78;;;2.08;;
43226;SDS011;28839;52.404;9.808;2022-07-01T17:36:49;3.72;;;2.00;;
43226;SDS011;28839;52.404;9.808;2022-07-01T17:43:43;5.50;;;2.20;;
43226;SDS011;28839;52.404;9.808;2022-07-01T17:50:39;3.42;;;2.10;;
43226;SDS011;28839;52.404;9.808;2022-07-01T17:57:36;4.85;;;3.65;;
43226;SDS011;28839;52.404;9.808;2022-07-01T18:04:30;8.48;;;3.42;;
43226;SDS011;28839;52.404;9.808;2022-07-01T18:11:26;5.35;;;2.62;;
43226;SDS011;28839;52.404;9.808;2022-07-01T18:18:27;5.20;;;2.10;;
43226;SDS011;28839;52.404;9.808;2022-07-01T18:25:22;4.65;;;1.90;;
43226;SDS011;28839;52.404;9.808;2022-07-01T18:32:18;4.32;;;1.73;;
43226;SDS011;28839;52.404;9.808;2022-07-01T18:39:16;4.82;;;1.90;;
43226;SDS011;28839;52.404;9.808;2022-07-01T18:46:20;3.45;;;2.30;;
43226;SDS011;28839;52.404;9.808;2022-07-01T18:53:34;2.42;;;1.92;;
43226;SDS011;28839;52.404;9.808;2022-07-01T19:00:29;2.47;;;2.25;;
43226;SDS011;28839;52.404;9.808;2022-07-01T19:07:23;3.87;;;2.10;;
43226;SDS011;28839;52.404;9.808;2022-07-01T19:14:17;4.00;;;2.60;;
43226;SDS011;28839;52.404;9.808;2022-07-01T19:21:12;4.57;;;2.20;;
43226;SDS011;28839;52.404;9.808;2022-07-01T19:28:06;3.85;;;2.42;;
43226;SDS011;28839;52.404;9.808;2022-07-01T19:35:00;2.85;;;2.20;;
43226;SDS011;28839;52.404;9.808;2022-07-01T19:41:56;3.65;;;2.20;;
43226;SDS011;28839;52.404;9.808;2022-07-01T19:48:50;3.37;;;2.55;;
43226;SDS011;28839;52.404;9.808;2022-07-01T19:55:44;4.22;;;2.90;;
43226;SDS011;28839;52.404;9.808;2022-07-01T20:02:39;5.40;;;3.05;;
43226;SDS011;28839;52.404;9.808;2022-07-01T20:09:33;6.93;;;3.25;;
43226;SDS011;28839;52.404;9.808;2022-07-01T20:16:27;5.15;;;2.50;;
43226;SDS011;28839;52.404;9.808;2022-07-01T20:23:22;3.20;;;2.58;;
43226;SDS011;28839;52.404;9.808;2022-07-01T20:30:18;3.90;;;3.08;;
43226;SDS011;28839;52.404;9.808;2022-07-01T20:37:12;6.00;;;3.15;;
43226;SDS011;28839;52.404;9.808;2022-07-01T20:44:07;4.00;;;3.30;;
43226;SDS011;28839;52.404;9.808;2022-07-01T20:51:01;5.10;;;3.72;;
43226;SDS011;28839;52.404;9.808;2022-07-01T20:57:55;4.10;;;3.50;;
43226;SDS011;28839;52.404;9.808;2022-07-01T21:04:50;6.13;;;4.23;;
43226;SDS011;28839;52.404;9.808;2022-07-01T21:11:44;7.85;;;4.85;;
43226;SDS011;28839;52.404;9.808;2022-07-01T21:18:38;5.67;;;4.50;;
43226;SDS011;28839;52.404;9.808;2022-07-01T21:25:33;7.03;;;4.83;;
43226;SDS011;28839;52.404;9.808;2022-07-01T21:32:27;8.05;;;5.55;;
43226;SDS011;28839;52.404;9.808;2022-07-01T21:39:21;6.22;;;4.70;;
43226;SDS011;28839;52.404;9.808;2022-07-01T21:46:18;6.43;;;5.57;;
43226;SDS011;28839;52.404;9.808;2022-07-01T21:53:12;25.90;;;18.00;;
43226;SDS011;28839;52.404;9.808;2022-07-01T22:00:08;12.30;;;9.60;;
43226;SDS011;28839;52.404;9.808;2022-07-01T22:07:10;31.05;;;17.45;;
43226;SDS011;28839;52.404;9.808;2022-07-01T22:14:04;21.10;;;12.80;;
43226;SDS011;28839;52.404;9.808;2022-07-01T22:21:00;16.92;;;11.93;;
43226;SDS011;28839;52.404;9.808;2022-07-01T22:27:56;10.02;;;7.68;;
43226;SDS011;28839;52.404;9.808;2022-07-01T22:34:51;9.30;;;7.50;;
43226;SDS011;28839;52.404;9.808;2022-07-01T22:41:45;7.00;;;6.32;;
43226;SDS011;28839;52.404;9.808;2022-07-01T22:48:42;6.05;;;5.25;;
43226;SDS011;28839;52.404;9.808;2022-07-01T22:55:46;5.60;;;5.00;;
43226;SDS011;28839;52.404;9.808;2022-07-01T23:02:50;7.67;;;4.70;;
43226;SDS011;28839;52.404;9.808;2022-07-01T23:09:52;7.60;;;5.57;;
43226;SDS011;28839;52.404;9.808;2022-07-01T23:16:51;6.60;;;5.95;;
43226;SDS011;28839;52.404;9.808;2022-07-01T23:30:41;5.50;;;4.97;;
43226;SDS011;28839;52.404;9.808;2022-07-01T23:37:36;4.82;;;4.20;;
43226;SDS011;28839;52.404;9.808;2022-07-01T23:44:32;5.30;;;4.07;;
43226;SDS011;28839;52.404;9.808;2022-07-01T23:51:27;5.37;;;3.60;;
43226;SDS011;28839;52.404;9.808;2022-07-01T23:58:21;5.32;;;3.50;;
